Aérodrome :
LOGIN :

S'inscrire | Disclaimer

   EN    FR    IT 

 










Légende :    VFR   VFR Marginal   IFR   IFR Intensif   IFR Très Intensif
Visi : 
Plafond : 
>= 8 km
>= 3000ft
5 à 8 km
1000 à 3000 ft
1500m à 5 km
500 à 1000 ft
800 à 1500m
200 à 500 ft
< 800m
< 200 ft
Symboles :   Orages  Brouillard  Fortes neiges  Fortes précipitations  Vent > 20 kt
SIGMETs :   Divers  Orages  Givrage  Turbulence  Onde Orograph.  Cendres Volcan.







- Altitude de l'aérodrome : 789 ft
- Code IATA : BZO


LIPB - Bolzano

DERNIER METAR :
  • 261550Z VRB03KT 9999 -TSRA FEW050CB SCT070 21/15 Q1008

METARs EXPIRÉS :
  • 261450Z VRB03KT 9999 FEW050TCU SCT070 23/13 Q1007
  • 261350Z VRB05KT 9999 FEW050TCU SCT070 25/11 Q1007

TAF AMD TAF LIPB
Valide du 26 à 12h jusqu'au 27 à 15h UTC


261545Z 2612/2715 VRB06KT 9999 SCT040
TEMPO 2615/2618 TSRA
Pas de NOTAMs connus pour ce terrain.



MET'MAP, la Météo Aéronautique d'un coup d'oeil ! - Copyright ORBIFLY Décembre 2007 - Disclaimer

ORBIFLY MET'MAP TEAM :

Programmation & Développement : Alexandra Zaïnal
Conception & Développement : Baudouin d'Aumeries
Co-Programmation & Développement : Marc-Olivier Méhu
Soutien technique & logistique : Manuel Goepfert

Contact : metmap@orbifly.com




SOURCES & CREDITS :

   NOAA